createdAt,value
2023-03-04T00:00:43.944Z,50.40
2023-03-04T00:03:15.659Z,50.16
2023-03-04T00:05:44.531Z,51.27
2023-03-04T00:08:13.448Z,51.59
2023-03-04T00:10:42.417Z,51.39
2023-03-04T00:13:11.284Z,52.04
2023-03-04T00:15:40.016Z,52.09
2023-03-04T00:18:08.715Z,51.78
2023-03-04T00:20:37.459Z,51.96
2023-03-04T00:23:06.259Z,51.31
2023-03-04T00:25:35.062Z,51.54
2023-03-04T00:28:03.883Z,51.17
2023-03-04T00:30:33.715Z,51.35
2023-03-04T00:33:02.528Z,50.55
2023-03-04T00:35:31.374Z,50.75
2023-03-04T00:38:00.218Z,50.37
2023-03-04T00:40:29.424Z,50.35
2023-03-04T00:42:58.424Z,49.88
2023-03-04T00:45:27.178Z,50.02
2023-03-04T00:47:55.960Z,49.72
2023-03-04T00:50:24.896Z,49.81
2023-03-04T00:52:53.819Z,49.67
2023-03-04T00:55:22.672Z,49.68
2023-03-04T00:57:52.418Z,49.36
2023-03-04T01:00:22.288Z,49.50
2023-03-04T01:02:53.805Z,49.48
2023-03-04T01:05:23.354Z,49.35
2023-03-04T01:07:52.285Z,49.14
2023-03-04T01:10:22.367Z,49.57
2023-03-04T01:12:51.106Z,49.44
2023-03-04T01:15:19.931Z,50.03
2023-03-04T01:17:49.409Z,50.19
2023-03-04T01:20:18.256Z,50.86
2023-03-04T01:22:47.135Z,50.84
2023-03-04T01:25:16.699Z,50.88
2023-03-04T01:27:45.594Z,50.96
2023-03-04T01:30:14.501Z,50.46
2023-03-04T01:32:43.336Z,50.47
2023-03-04T01:35:12.043Z,50.49
2023-03-04T01:37:41.064Z,50.65
2023-03-04T01:40:11.382Z,50.34
2023-03-04T01:42:41.576Z,50.09
2023-03-04T01:45:16.381Z,50.60
2023-03-04T01:47:49.713Z,50.24
2023-03-04T01:50:23.562Z,50.34
2023-03-04T01:52:52.448Z,49.66
2023-03-04T01:55:23.742Z,49.82
2023-03-04T01:57:53.482Z,49.91
2023-03-04T02:00:33.946Z,50.28
2023-03-04T02:03:15.927Z,49.97
2023-03-04T02:05:49.182Z,49.54
2023-03-04T02:08:21.562Z,49.26
2023-03-04T02:10:51.880Z,49.98
2023-03-04T02:13:40.555Z,49.28
2023-03-04T02:16:09.478Z,49.33
2023-03-04T02:18:38.303Z,49.93
2023-03-04T02:21:13.278Z,50.04
2023-03-04T02:24:04.383Z,50.60
2023-03-04T02:26:35.802Z,49.63
2023-03-04T02:29:05.238Z,49.98
2023-03-04T02:31:40.741Z,50.26
2023-03-04T02:34:13.874Z,50.50
2023-03-04T02:36:44.055Z,50.53
2023-03-04T02:39:36.587Z,51.14
2023-03-04T02:42:05.927Z,50.41
2023-03-04T02:44:39.332Z,51.22
2023-03-04T02:47:10.209Z,51.37
2023-03-04T02:49:41.210Z,51.50
2023-03-04T02:52:21.868Z,51.83
2023-03-04T02:54:50.628Z,52.09
2023-03-04T02:57:19.926Z,52.34
2023-03-04T02:59:53.576Z,53.19
2023-03-04T03:02:27.759Z,51.93
2023-03-04T03:04:57.085Z,51.43
2023-03-04T03:07:27.857Z,51.61
2023-03-04T03:09:56.512Z,51.34
2023-03-04T03:12:25.295Z,50.95
2023-03-04T03:14:54.037Z,50.15
2023-03-04T03:17:24.242Z,48.77
2023-03-04T03:19:52.956Z,47.65
2023-03-04T03:22:21.859Z,48.30
2023-03-04T03:24:50.586Z,48.13
2023-03-04T03:27:19.310Z,48.24
2023-03-04T03:29:48.080Z,48.89
2023-03-04T03:32:16.983Z,48.76
2023-03-04T03:34:45.815Z,48.91
2023-03-04T03:37:14.863Z,48.10
2023-03-04T03:39:43.688Z,48.51
2023-03-04T03:42:12.460Z,48.96
2023-03-04T03:44:41.350Z,48.71
2023-03-04T03:47:10.191Z,48.37
2023-03-04T03:49:38.880Z,48.77
2023-03-04T03:52:08.954Z,48.80
2023-03-04T03:54:37.669Z,49.22
2023-03-04T03:57:06.814Z,48.14
2023-03-04T03:59:35.553Z,47.83
2023-03-04T04:02:05.248Z,46.90
2023-03-04T04:04:34.388Z,45.46
2023-03-04T04:07:03.256Z,44.97
2023-03-04T04:09:32.107Z,44.63
2023-03-04T04:12:00.832Z,45.08
2023-03-04T04:14:29.558Z,45.80
2023-03-04T04:16:58.379Z,46.20
2023-03-04T04:19:27.499Z,45.50
2023-03-04T04:21:56.346Z,45.98
2023-03-04T04:24:25.154Z,45.50
2023-03-04T04:27:10.027Z,46.31
2023-03-04T04:29:41.608Z,43.56
2023-03-04T04:32:14.105Z,41.39
2023-03-04T04:34:42.882Z,42.26
2023-03-04T04:37:16.482Z,42.42
2023-03-04T04:39:46.855Z,41.44
2023-03-04T04:42:15.755Z,40.60
2023-03-04T04:44:44.953Z,40.71
2023-03-04T04:47:14.034Z,41.50
2023-03-04T04:49:42.906Z,39.71
2023-03-04T04:52:12.582Z,37.73
2023-03-04T04:54:41.964Z,36.39
2023-03-04T04:57:10.850Z,35.56
2023-03-04T04:59:39.643Z,34.77
2023-03-04T05:02:09.450Z,34.96
2023-03-04T05:04:41.129Z,35.97
2023-03-04T05:07:10.170Z,37.87
2023-03-04T05:09:43.668Z,39.14
2023-03-04T05:12:12.755Z,40.39
2023-03-04T05:14:41.492Z,40.37
2023-03-04T05:17:10.179Z,40.13
2023-03-04T05:19:40.206Z,37.94
2023-03-04T05:22:09.379Z,36.76
2023-03-04T05:24:38.417Z,36.92
2023-03-04T05:27:07.160Z,38.29
2023-03-04T05:29:35.898Z,40.20
2023-03-04T05:32:04.847Z,39.54
2023-03-04T05:34:33.780Z,37.50
2023-03-04T05:37:02.664Z,34.88
2023-03-04T05:39:31.414Z,33.61
2023-03-04T05:42:00.152Z,34.03
2023-03-04T05:44:28.886Z,35.11
2023-03-04T05:46:57.696Z,36.76
2023-03-04T05:49:26.517Z,38.17
2023-03-04T05:51:55.263Z,38.56
2023-03-04T05:54:24.023Z,38.57
2023-03-04T05:56:52.849Z,39.94
2023-03-04T05:59:22.463Z,40.84
2023-03-04T06:01:52.319Z,41.99
2023-03-04T06:04:21.219Z,42.42
2023-03-04T06:06:50.064Z,41.18
2023-03-04T06:09:21.620Z,40.56
2023-03-04T06:11:50.483Z,38.34
2023-03-04T06:14:19.346Z,36.19
2023-03-04T06:16:48.067Z,34.43
2023-03-04T06:19:16.898Z,35.65
2023-03-04T06:21:45.932Z,36.50
2023-03-04T06:24:14.716Z,38.54
2023-03-04T06:26:43.574Z,38.65
2023-03-04T06:29:12.558Z,39.25
2023-03-04T06:31:42.540Z,40.13
2023-03-04T06:34:11.365Z,39.93
2023-03-04T06:36:40.428Z,40.82
2023-03-04T06:39:09.639Z,41.47
2023-03-04T06:41:38.769Z,41.26
2023-03-04T06:44:07.959Z,38.31
2023-03-04T06:46:36.949Z,36.68
2023-03-04T06:49:05.845Z,37.90
2023-03-04T06:51:34.886Z,39.83
2023-03-04T06:54:04.344Z,39.98
2023-03-04T06:56:33.202Z,39.50
2023-03-04T06:59:01.979Z,37.89
2023-03-04T07:01:31.419Z,36.35
2023-03-04T07:04:00.617Z,35.36
2023-03-04T07:06:29.766Z,34.35
2023-03-04T07:09:00.616Z,34.92
2023-03-04T07:11:29.425Z,35.03
2023-03-04T07:13:58.170Z,36.00
2023-03-04T07:16:27.653Z,36.71
2023-03-04T07:18:57.752Z,37.84
2023-03-04T07:21:26.734Z,36.15
2023-03-04T07:23:55.743Z,32.21
2023-03-04T07:26:24.480Z,28.82
2023-03-04T07:28:55.223Z,27.05
2023-03-04T07:31:30.469Z,27.17
2023-03-04T07:34:07.379Z,27.49
2023-03-04T07:36:37.897Z,27.91
2023-03-04T07:39:07.756Z,28.04
2023-03-04T07:41:37.895Z,28.53
2023-03-04T07:44:07.966Z,29.69
2023-03-04T07:46:36.894Z,29.92
2023-03-04T07:49:05.770Z,31.86
2023-03-04T07:51:35.558Z,32.26
2023-03-04T07:54:04.415Z,32.90
2023-03-04T07:56:35.064Z,33.71
2023-03-04T07:59:03.988Z,32.22
2023-03-04T08:01:38.570Z,31.49
2023-03-04T08:04:09.116Z,31.42
2023-03-04T08:06:37.966Z,32.26
2023-03-04T08:09:09.480Z,33.41
2023-03-04T08:11:39.182Z,33.91
2023-03-04T08:14:08.261Z,34.66
2023-03-04T08:16:37.074Z,35.11
2023-03-04T08:19:07.434Z,35.27
2023-03-04T08:21:36.651Z,35.23
2023-03-04T08:24:09.151Z,35.43
2023-03-04T08:26:42.532Z,35.36
2023-03-04T08:29:23.599Z,35.17
2023-03-04T08:31:54.880Z,35.58
2023-03-04T08:34:27.213Z,34.89
2023-03-04T08:36:56.686Z,33.54
2023-03-04T08:39:25.383Z,31.90
2023-03-04T08:41:54.076Z,31.80
2023-03-04T08:44:25.776Z,32.44
2023-03-04T08:46:55.409Z,32.25
2023-03-04T08:49:24.205Z,32.00
2023-03-04T08:51:52.913Z,30.73
2023-03-04T08:54:21.793Z,29.71
2023-03-04T08:56:50.692Z,30.08
2023-03-04T08:59:19.524Z,30.85
2023-03-04T09:01:48.664Z,31.64
2023-03-04T09:04:18.084Z,31.94
2023-03-04T09:06:46.895Z,31.58
2023-03-04T09:09:15.763Z,32.68
2023-03-04T09:11:44.543Z,33.29
2023-03-04T09:14:13.334Z,33.29
2023-03-04T09:16:42.128Z,33.53
2023-03-04T09:19:10.950Z,33.39
2023-03-04T09:21:39.747Z,33.25
2023-03-04T09:24:08.705Z,32.64
2023-03-04T09:26:37.701Z,32.68
2023-03-04T09:29:07.151Z,32.52
2023-03-04T09:31:36.208Z,33.31
2023-03-04T09:34:05.026Z,33.26
2023-03-04T09:36:33.820Z,33.62
2023-03-04T09:39:04.860Z,33.43
2023-03-04T09:41:57.141Z,33.47
2023-03-04T09:44:37.453Z,33.28
2023-03-04T09:47:16.282Z,33.81
2023-03-04T09:49:54.128Z,33.52
2023-03-04T09:52:39.150Z,33.40
2023-03-04T09:55:26.203Z,33.87
2023-03-04T09:58:13.382Z,33.84
2023-03-04T10:00:46.386Z,34.38
2023-03-04T10:03:20.979Z,34.43
2023-03-04T10:06:03.697Z,33.92
2023-03-04T10:08:52.685Z,34.34
2023-03-04T10:11:49.468Z,34.27
2023-03-04T10:14:24.182Z,34.24
2023-03-04T10:16:59.410Z,34.69
2023-03-04T10:20:10.190Z,35.15
2023-03-04T10:22:53.417Z,35.29
2023-03-04T10:25:32.792Z,35.62
2023-03-04T10:28:04.660Z,35.65
2023-03-04T10:31:00.908Z,35.63
2023-03-04T10:33:32.755Z,35.79
2023-03-04T10:36:15.534Z,36.33
2023-03-04T10:38:45.736Z,36.28
2023-03-04T10:41:23.841Z,36.61
2023-03-04T10:44:11.907Z,37.08
2023-03-04T10:46:45.108Z,37.18
2023-03-04T10:49:20.482Z,37.04
2023-03-04T10:51:52.538Z,36.94
2023-03-04T10:54:40.160Z,37.29
2023-03-04T10:57:17.207Z,36.91
2023-03-04T10:59:54.068Z,37.25
2023-03-04T11:02:28.270Z,37.31
2023-03-04T11:05:22.390Z,37.65
2023-03-04T11:07:56.589Z,37.75
2023-03-04T11:10:37.807Z,38.11
2023-03-04T11:13:12.638Z,38.02
2023-03-04T11:16:23.848Z,37.90
2023-03-04T11:18:55.866Z,37.78
2023-03-04T11:21:29.546Z,38.12
2023-03-04T11:24:25.715Z,38.23
2023-03-04T11:27:09.256Z,38.19
2023-03-04T11:29:52.569Z,38.53
2023-03-04T11:32:31.882Z,38.52
2023-03-04T11:35:27.956Z,38.82
2023-03-04T11:38:06.116Z,38.56
2023-03-04T11:40:45.350Z,38.72
2023-03-04T11:43:20.231Z,38.73
2023-03-04T11:46:20.715Z,39.32
2023-03-04T11:49:20.183Z,39.26
2023-03-04T11:52:24.242Z,39.13
2023-03-04T11:55:29.599Z,39.34
2023-03-04T11:58:24.947Z,39.40
2023-03-04T12:01:18.421Z,39.44
2023-03-04T12:04:19.430Z,39.58
2023-03-04T12:07:10.260Z,39.78
2023-03-04T12:10:13.051Z,39.76
2023-03-04T12:13:42.160Z,40.22
2023-03-04T12:16:30.685Z,40.18
2023-03-04T12:19:02.592Z,40.26
2023-03-04T12:22:09.690Z,40.50
2023-03-04T12:24:57.228Z,40.40
2023-03-04T12:27:57.683Z,40.58
2023-03-04T12:30:39.185Z,40.63
2023-03-04T12:33:13.973Z,40.75
2023-03-04T12:35:52.931Z,40.88
2023-03-04T12:38:51.098Z,41.13
2023-03-04T12:41:35.279Z,40.99
2023-03-04T12:44:13.011Z,41.03
2023-03-04T12:47:07.603Z,41.24
2023-03-04T12:49:45.573Z,41.36
2023-03-04T12:52:48.234Z,41.29
2023-03-04T12:55:19.921Z,41.42
2023-03-04T12:57:51.106Z,41.74
2023-03-04T13:00:42.130Z,41.90
2023-03-04T13:03:43.660Z,42.04
2023-03-04T13:06:17.855Z,42.03
2023-03-04T13:09:23.659Z,42.45
2023-03-04T13:11:55.890Z,42.81
2023-03-04T13:14:29.200Z,43.17
2023-03-04T13:17:21.782Z,43.38
2023-03-04T13:19:57.679Z,43.83
2023-03-04T13:22:41.550Z,43.81
2023-03-04T13:25:31.615Z,43.99
2023-03-04T13:28:12.326Z,44.55
2023-03-04T13:30:42.693Z,44.66
2023-03-04T13:33:11.419Z,44.82
2023-03-04T13:36:00.676Z,44.78
2023-03-04T13:38:32.881Z,45.13
2023-03-04T13:41:45.692Z,45.38
2023-03-04T13:44:34.152Z,45.26
2023-03-04T13:47:34.898Z,45.58
2023-03-04T13:50:45.868Z,45.71
2023-03-04T13:53:39.314Z,45.69
2023-03-04T13:56:11.420Z,45.98
2023-03-04T13:58:40.781Z,46.02
2023-03-04T14:01:28.334Z,46.48
2023-03-04T14:03:57.506Z,46.16
2023-03-04T14:06:32.077Z,46.40
2023-03-04T14:09:00.903Z,46.36
2023-03-04T14:12:07.883Z,46.78
2023-03-04T14:15:03.971Z,46.51
2023-03-04T14:17:38.933Z,46.60
2023-03-04T14:20:27.790Z,46.83
2023-03-04T14:22:57.776Z,46.80
2023-03-04T14:25:29.478Z,46.96
2023-03-04T14:28:21.381Z,46.78
2023-03-04T14:30:58.397Z,46.97
2023-03-04T14:33:31.445Z,47.07
2023-03-04T14:36:03.538Z,47.22
2023-03-04T14:38:33.585Z,47.10
2023-03-04T14:41:11.108Z,47.46
2023-03-04T14:43:49.363Z,47.32
2023-03-04T14:46:20.564Z,47.14
2023-03-04T14:48:54.936Z,47.35
2023-03-04T14:51:49.354Z,47.09
2023-03-04T14:54:53.107Z,47.39
2023-03-04T14:57:26.705Z,47.24
2023-03-04T14:59:56.402Z,47.23
2023-03-04T15:02:42.565Z,47.44
2023-03-04T15:05:25.956Z,47.51
2023-03-04T15:08:01.633Z,47.43
2023-03-04T15:10:37.176Z,47.53
2023-03-04T15:13:09.450Z,47.72
2023-03-04T15:15:44.829Z,47.70
2023-03-04T15:18:23.104Z,47.67
2023-03-04T15:20:56.038Z,47.77
2023-03-04T15:23:25.351Z,47.79
2023-03-04T15:25:57.611Z,47.67
2023-03-04T15:28:29.753Z,47.84
2023-03-04T15:30:58.512Z,47.63
2023-03-04T15:33:28.071Z,47.64
2023-03-04T15:36:02.517Z,47.82
2023-03-04T15:38:31.380Z,47.93
2023-03-04T15:41:00.679Z,47.90
2023-03-04T15:43:29.484Z,47.83
2023-03-04T15:45:58.157Z,47.90
2023-03-04T15:48:26.907Z,47.66
2023-03-04T15:50:58.518Z,47.47
2023-03-04T15:53:40.206Z,47.83
2023-03-04T15:56:14.646Z,48.05
2023-03-04T15:58:44.621Z,47.93
2023-03-04T16:01:18.366Z,47.89
2023-03-04T16:03:47.356Z,47.51
2023-03-04T16:06:19.344Z,47.84
2023-03-04T16:08:51.924Z,47.71
2023-03-04T16:11:26.236Z,48.10
2023-03-04T16:13:55.180Z,47.93
2023-03-04T16:16:23.924Z,48.02
2023-03-04T16:18:52.724Z,48.04
2023-03-04T16:21:23.907Z,48.06
2023-03-04T16:23:53.285Z,48.19
2023-03-04T16:26:24.570Z,48.22
2023-03-04T16:28:54.356Z,48.18
2023-03-04T16:31:23.939Z,47.94
2023-03-04T16:33:52.801Z,48.31
2023-03-04T16:36:27.569Z,48.03
2023-03-04T16:38:58.079Z,48.18
2023-03-04T16:41:31.153Z,48.07
2023-03-04T16:44:01.490Z,48.30
2023-03-04T16:46:30.721Z,47.93
2023-03-04T16:49:00.900Z,48.13
2023-03-04T16:51:31.126Z,47.84
2023-03-04T16:54:00.746Z,48.27
2023-03-04T16:56:30.151Z,48.08
2023-03-04T16:59:00.847Z,48.04
2023-03-04T17:01:30.552Z,48.21
2023-03-04T17:03:59.790Z,48.29
2023-03-04T17:06:28.825Z,48.33
2023-03-04T17:08:57.607Z,48.04
2023-03-04T17:11:26.414Z,48.14
2023-03-04T17:13:55.182Z,47.74
2023-03-04T17:16:23.991Z,47.97
2023-03-04T17:18:53.008Z,47.86
2023-03-04T17:21:25.411Z,47.90
2023-03-04T17:23:55.474Z,47.78
2023-03-04T17:26:24.683Z,47.70
2023-03-04T17:28:56.316Z,47.62
2023-03-04T17:31:26.102Z,47.81
2023-03-04T17:33:56.740Z,47.79
2023-03-04T17:36:27.142Z,47.83
2023-03-04T17:38:56.014Z,47.71
2023-03-04T17:41:26.853Z,48.03
2023-03-04T17:43:57.466Z,47.88
2023-03-04T17:46:28.769Z,48.08
2023-03-04T17:49:02.481Z,48.09
2023-03-04T17:51:36.896Z,48.05
2023-03-04T17:54:08.946Z,48.25
2023-03-04T17:56:41.024Z,48.32
2023-03-04T17:59:14.367Z,48.09
2023-03-04T18:01:45.795Z,48.61
2023-03-04T18:04:15.725Z,48.44
2023-03-04T18:06:44.728Z,48.55
2023-03-04T18:09:13.624Z,48.63
2023-03-04T18:11:43.145Z,49.01
2023-03-04T18:14:13.290Z,48.84
2023-03-04T18:16:42.313Z,49.10
2023-03-04T18:19:11.251Z,49.07
2023-03-04T18:21:40.052Z,49.50
2023-03-04T18:24:10.241Z,49.68
2023-03-04T18:26:38.983Z,49.82
2023-03-04T18:29:07.855Z,49.96
2023-03-04T18:31:37.338Z,50.17
2023-03-04T18:34:06.219Z,50.12
2023-03-04T18:36:35.000Z,50.44
2023-03-04T18:39:06.106Z,50.35
2023-03-04T18:41:35.512Z,50.44
2023-03-04T18:44:05.518Z,50.49
2023-03-04T18:46:40.703Z,50.71
2023-03-04T18:49:11.071Z,50.87
2023-03-04T18:51:39.841Z,51.19
2023-03-04T18:54:08.938Z,51.61
2023-03-04T18:56:57.206Z,51.86
2023-03-04T18:59:37.415Z,51.81
2023-03-04T19:02:21.154Z,52.29
2023-03-04T19:04:51.359Z,52.04
2023-03-04T19:07:20.093Z,52.22
2023-03-04T19:09:48.804Z,52.09
2023-03-04T19:12:17.489Z,52.55
2023-03-04T19:14:46.260Z,52.32
2023-03-04T19:17:15.176Z,52.26
2023-03-04T19:19:44.003Z,52.59
2023-03-04T19:22:13.350Z,52.75
2023-03-04T19:24:42.068Z,52.24
2023-03-04T19:27:10.750Z,52.48
2023-03-04T19:29:39.558Z,52.55
2023-03-04T19:32:08.321Z,52.45
2023-03-04T19:34:37.091Z,52.60
2023-03-04T19:37:06.136Z,52.46
2023-03-04T19:39:34.951Z,52.45
2023-03-04T19:42:04.538Z,52.36
2023-03-04T19:44:33.491Z,52.50
2023-03-04T19:47:02.552Z,52.53
2023-03-04T19:49:35.049Z,52.54
2023-03-04T19:52:03.800Z,52.59
2023-03-04T19:54:32.884Z,52.94
2023-03-04T19:57:01.700Z,52.90
2023-03-04T19:59:30.455Z,53.68
2023-03-04T20:02:01.981Z,53.74
2023-03-04T20:04:31.475Z,53.82
2023-03-04T20:07:00.300Z,54.07
2023-03-04T20:09:29.048Z,53.80
2023-03-04T20:11:59.355Z,54.05
2023-03-04T20:14:28.872Z,54.22
2023-03-04T20:17:03.060Z,54.39
2023-03-04T20:19:33.324Z,54.63
2023-03-04T20:22:03.189Z,54.64
2023-03-04T20:24:31.941Z,54.72
2023-03-04T20:27:00.795Z,54.85
2023-03-04T20:29:29.520Z,54.55
2023-03-04T20:31:59.028Z,54.62
2023-03-04T20:34:28.057Z,55.06
2023-03-04T20:36:58.876Z,54.76
2023-03-04T20:39:30.042Z,54.64
2023-03-04T20:41:59.532Z,54.76
2023-03-04T20:44:28.901Z,54.58
2023-03-04T20:46:57.732Z,54.31
2023-03-04T20:49:28.996Z,54.66
2023-03-04T20:52:03.772Z,54.33
2023-03-04T20:54:33.680Z,54.43
2023-03-04T20:57:02.709Z,54.38
2023-03-04T20:59:31.494Z,54.57
2023-03-04T21:02:00.902Z,54.29
2023-03-04T21:04:31.915Z,54.49
2023-03-04T21:07:05.035Z,54.72
2023-03-04T21:09:33.935Z,55.23
2023-03-04T21:12:02.727Z,55.02
2023-03-04T21:14:32.700Z,55.48
2023-03-04T21:17:03.763Z,56.00
2023-03-04T21:19:36.805Z,55.99
2023-03-04T21:22:05.789Z,56.19
2023-03-04T21:24:37.103Z,55.90
2023-03-04T21:27:07.508Z,56.31
2023-03-04T21:29:36.680Z,56.50
2023-03-04T21:32:21.123Z,56.52
2023-03-04T21:34:52.689Z,56.80
2023-03-04T21:37:22.834Z,57.76
2023-03-04T21:39:51.692Z,58.58
2023-03-04T21:42:20.755Z,59.25
2023-03-04T21:44:50.841Z,59.89
2023-03-04T21:47:21.833Z,60.44
2023-03-04T21:49:51.130Z,60.64
2023-03-04T21:52:21.357Z,60.49
2023-03-04T21:54:50.434Z,60.69
2023-03-04T21:57:19.756Z,60.89
2023-03-04T21:59:48.868Z,60.93
2023-03-04T22:02:21.253Z,60.84
2023-03-04T22:04:50.434Z,60.97
2023-03-04T22:07:19.323Z,60.99
2023-03-04T22:09:48.134Z,60.75
2023-03-04T22:12:19.166Z,60.78
2023-03-04T22:14:48.349Z,61.03
2023-03-04T22:17:17.384Z,60.54
2023-03-04T22:19:46.247Z,60.95
2023-03-04T22:22:18.452Z,60.48
2023-03-04T22:24:47.202Z,60.81
2023-03-04T22:27:15.957Z,60.44
2023-03-04T22:29:44.729Z,60.47
2023-03-04T22:32:14.743Z,60.61
2023-03-04T22:34:43.859Z,60.65
2023-03-04T22:37:12.608Z,60.88
2023-03-04T22:39:41.874Z,60.46
2023-03-04T22:42:12.069Z,60.51
2023-03-04T22:44:40.859Z,60.93
2023-03-04T22:47:09.694Z,60.56
2023-03-04T22:49:40.464Z,60.75
2023-03-04T22:52:09.370Z,60.91
2023-03-04T22:54:38.074Z,60.88
2023-03-04T22:57:07.299Z,60.85
2023-03-04T22:59:36.698Z,61.12
2023-03-04T23:02:06.410Z,60.87
2023-03-04T23:04:35.768Z,60.71
2023-03-04T23:07:04.610Z,60.69
2023-03-04T23:09:33.394Z,60.54
2023-03-04T23:12:02.279Z,60.72
2023-03-04T23:14:31.090Z,60.44
2023-03-04T23:16:59.929Z,60.07
2023-03-04T23:19:28.803Z,60.32
2023-03-04T23:21:57.615Z,59.77
2023-03-04T23:24:27.242Z,59.82
2023-03-04T23:26:56.038Z,59.82
2023-03-04T23:29:24.903Z,59.69
2023-03-04T23:31:53.642Z,59.74
2023-03-04T23:34:22.674Z,59.55
2023-03-04T23:36:51.504Z,59.32
2023-03-04T23:39:20.554Z,59.36
2023-03-04T23:41:49.334Z,59.42
2023-03-04T23:44:18.041Z,59.16
2023-03-04T23:46:46.752Z,59.11
2023-03-04T23:49:17.542Z,59.13
2023-03-04T23:51:46.346Z,59.34
2023-03-04T23:54:15.714Z,59.56
2023-03-04T23:56:44.537Z,59.32
2023-03-04T23:59:13.410Z,59.41
